sensor_id;sensor_type;location;lat;lon;timestamp;pressure;altitude;pressure_sealevel;temperature;humidity
65614;BME280;52283;49.292;10.572;2022-12-26T00:00:51;96429.16;;;9.44;100.00
65614;BME280;52283;49.292;10.572;2022-12-26T00:03:17;96428.16;;;9.47;100.00
65614;BME280;52283;49.292;10.572;2022-12-26T00:05:44;96426.63;;;9.46;100.00
65614;BME280;52283;49.292;10.572;2022-12-26T00:08:10;96429.44;;;9.46;100.00
65614;BME280;52283;49.292;10.572;2022-12-26T00:10:36;96429.69;;;9.48;100.00
65614;BME280;52283;49.292;10.572;2022-12-26T00:13:04;96427.50;;;9.58;100.00
65614;BME280;52283;49.292;10.572;2022-12-26T00:15:31;96433.84;;;9.59;100.00
65614;BME280;52283;49.292;10.572;2022-12-26T00:17:57;96439.66;;;9.61;100.00
65614;BME280;52283;49.292;10.572;2022-12-26T00:20:24;96427.19;;;9.56;100.00
65614;BME280;52283;49.292;10.572;2022-12-26T00:22:50;96434.59;;;9.59;100.00
65614;BME280;52283;49.292;10.572;2022-12-26T00:25:17;96440.38;;;9.56;100.00
65614;BME280;52283;49.292;10.572;2022-12-26T00:27:43;96441.63;;;9.55;100.00
65614;BME280;52283;49.292;10.572;2022-12-26T00:30:11;96443.91;;;9.51;100.00
65614;BME280;52283;49.292;10.572;2022-12-26T00:32:38;96450.22;;;9.45;100.00
65614;BME280;52283;49.292;10.572;2022-12-26T00:35:05;96455.03;;;9.45;100.00
65614;BME280;52283;49.292;10.572;2022-12-26T00:37:31;96456.81;;;9.48;100.00
65614;BME280;52283;49.292;10.572;2022-12-26T00:39:58;96450.72;;;9.44;100.00
65614;BME280;52283;49.292;10.572;2022-12-26T00:42:24;96444.09;;;9.41;100.00
65614;BME280;52283;49.292;10.572;2022-12-26T00:44:51;96445.81;;;9.33;100.00
65614;BME280;52283;49.292;10.572;2022-12-26T00:47:19;96460.97;;;9.27;100.00
65614;BME280;52283;49.292;10.572;2022-12-26T00:49:45;96465.47;;;9.19;100.00
65614;BME280;52283;49.292;10.572;2022-12-26T00:52:12;96470.22;;;9.12;100.00
65614;BME280;52283;49.292;10.572;2022-12-26T00:54:38;96475.53;;;9.10;100.00
65614;BME280;52283;49.292;10.572;2022-12-26T00:57:04;96481.81;;;9.05;100.00
65614;BME280;52283;49.292;10.572;2022-12-26T00:59:31;96478.63;;;8.92;100.00
65614;BME280;52283;49.292;10.572;2022-12-26T01:01:57;96490.06;;;8.94;100.00
65614;BME280;52283;49.292;10.572;2022-12-26T01:04:26;96482.41;;;8.89;100.00
65614;BME280;52283;49.292;10.572;2022-12-26T01:06:53;96481.22;;;8.96;100.00
65614;BME280;52283;49.292;10.572;2022-12-26T01:09:19;96477.34;;;8.88;100.00
65614;BME280;52283;49.292;10.572;2022-12-26T01:11:46;96478.31;;;8.84;100.00
65614;BME280;52283;49.292;10.572;2022-12-26T01:14:14;96484.34;;;8.77;100.00
65614;BME280;52283;49.292;10.572;2022-12-26T01:16:42;96478.41;;;8.70;100.00
65614;BME280;52283;49.292;10.572;2022-12-26T01:19:09;96471.09;;;8.72;100.00
65614;BME280;52283;49.292;10.572;2022-12-26T01:21:37;96454.44;;;8.78;100.00
65614;BME280;52283;49.292;10.572;2022-12-26T01:24:04;96462.81;;;8.78;100.00
65614;BME280;52283;49.292;10.572;2022-12-26T01:26:31;96462.09;;;8.83;100.00
65614;BME280;52283;49.292;10.572;2022-12-26T01:28:58;96461.09;;;8.86;100.00
65614;BME280;52283;49.292;10.572;2022-12-26T01:31:24;96459.81;;;8.81;100.00
65614;BME280;52283;49.292;10.572;2022-12-26T01:33:50;96468.56;;;8.74;100.00
65614;BME280;52283;49.292;10.572;2022-12-26T01:36:17;96461.47;;;8.73;100.00
65614;BME280;52283;49.292;10.572;2022-12-26T01:38:45;96458.41;;;8.71;100.00
65614;BME280;52283;49.292;10.572;2022-12-26T01:41:12;96462.69;;;8.67;100.00
65614;BME280;52283;49.292;10.572;2022-12-26T01:43:54;96460.38;;;8.65;100.00
65614;BME280;52283;49.292;10.572;2022-12-26T01:46:25;96459.78;;;8.55;100.00
65614;BME280;52283;49.292;10.572;2022-12-26T01:48:53;96458.31;;;8.60;100.00
65614;BME280;52283;49.292;10.572;2022-12-26T01:51:25;96465.16;;;8.59;100.00
65614;BME280;52283;49.292;10.572;2022-12-26T01:53:57;96468.41;;;8.58;100.00
65614;BME280;52283;49.292;10.572;2022-12-26T01:56:28;96460.84;;;8.58;100.00
65614;BME280;52283;49.292;10.572;2022-12-26T01:59:00;96453.47;;;8.55;100.00
65614;BME280;52283;49.292;10.572;2022-12-26T02:01:30;96454.13;;;8.50;100.00
65614;BME280;52283;49.292;10.572;2022-12-26T02:03:57;96462.72;;;8.46;100.00
65614;BME280;52283;49.292;10.572;2022-12-26T02:06:42;96456.72;;;8.53;100.00
65614;BME280;52283;49.292;10.572;2022-12-26T02:09:10;96456.44;;;8.51;100.00
65614;BME280;52283;49.292;10.572;2022-12-26T02:11:39;96458.19;;;8.49;100.00
65614;BME280;52283;49.292;10.572;2022-12-26T02:14:08;96461.25;;;8.51;100.00
65614;BME280;52283;49.292;10.572;2022-12-26T02:16:36;96461.81;;;8.55;100.00
65614;BME280;52283;49.292;10.572;2022-12-26T02:19:16;96465.56;;;8.52;100.00
65614;BME280;52283;49.292;10.572;2022-12-26T02:22:07;96456.88;;;8.44;100.00
65614;BME280;52283;49.292;10.572;2022-12-26T02:24:59;96463.16;;;8.39;100.00
65614;BME280;52283;49.292;10.572;2022-12-26T02:27:52;96453.63;;;8.31;100.00
65614;BME280;52283;49.292;10.572;2022-12-26T02:30:41;96448.84;;;8.32;100.00
65614;BME280;52283;49.292;10.572;2022-12-26T02:33:18;96446.50;;;8.24;100.00
65614;BME280;52283;49.292;10.572;2022-12-26T02:36:15;96460.06;;;8.17;100.00
65614;BME280;52283;49.292;10.572;2022-12-26T02:38:51;96450.19;;;8.16;100.00
65614;BME280;52283;49.292;10.572;2022-12-26T02:41:25;96449.47;;;8.21;100.00
65614;BME280;52283;49.292;10.572;2022-12-26T02:44:05;96453.94;;;8.13;100.00
65614;BME280;52283;49.292;10.572;2022-12-26T02:46:55;96467.28;;;8.09;100.00
65614;BME280;52283;49.292;10.572;2022-12-26T02:49:41;96448.38;;;8.13;100.00
65614;BME280;52283;49.292;10.572;2022-12-26T02:52:39;96446.81;;;8.12;100.00
65614;BME280;52283;49.292;10.572;2022-12-26T02:55:28;96448.94;;;8.17;100.00
65614;BME280;52283;49.292;10.572;2022-12-26T02:58:18;96445.19;;;8.20;100.00
65614;BME280;52283;49.292;10.572;2022-12-26T03:01:06;96437.81;;;8.17;100.00
65614;BME280;52283;49.292;10.572;2022-12-26T03:03:57;96444.97;;;8.23;100.00
65614;BME280;52283;49.292;10.572;2022-12-26T03:06:53;96440.66;;;8.22;100.00
65614;BME280;52283;49.292;10.572;2022-12-26T03:09:38;96433.00;;;8.17;100.00
65614;BME280;52283;49.292;10.572;2022-12-26T03:12:33;96442.50;;;8.11;100.00
65614;BME280;52283;49.292;10.572;2022-12-26T03:15:21;96444.25;;;8.08;100.00
65614;BME280;52283;49.292;10.572;2022-12-26T03:17:50;96442.31;;;8.14;100.00
65614;BME280;52283;49.292;10.572;2022-12-26T03:20:22;96452.47;;;8.17;100.00
65614;BME280;52283;49.292;10.572;2022-12-26T03:22:52;96458.13;;;8.23;100.00
65614;BME280;52283;49.292;10.572;2022-12-26T03:25:25;96454.91;;;8.30;100.00
65614;BME280;52283;49.292;10.572;2022-12-26T03:28:12;96457.59;;;8.39;100.00
65614;BME280;52283;49.292;10.572;2022-12-26T03:30:39;96468.78;;;8.45;100.00
65614;BME280;52283;49.292;10.572;2022-12-26T03:33:13;96462.50;;;8.50;100.00
65614;BME280;52283;49.292;10.572;2022-12-26T03:35:55;96448.66;;;8.55;100.00
65614;BME280;52283;49.292;10.572;2022-12-26T03:38:27;96461.44;;;8.68;100.00
65614;BME280;52283;49.292;10.572;2022-12-26T03:41:04;96450.81;;;8.72;100.00
65614;BME280;52283;49.292;10.572;2022-12-26T03:44:02;96453.63;;;8.72;100.00
65614;BME280;52283;49.292;10.572;2022-12-26T03:46:59;96454.44;;;8.78;100.00
65614;BME280;52283;49.292;10.572;2022-12-26T03:49:50;96450.69;;;8.81;100.00
65614;BME280;52283;49.292;10.572;2022-12-26T03:52:41;96461.41;;;8.94;100.00
65614;BME280;52283;49.292;10.572;2022-12-26T03:55:33;96461.22;;;8.97;100.00
65614;BME280;52283;49.292;10.572;2022-12-26T03:58:23;96449.31;;;8.97;100.00
65614;BME280;52283;49.292;10.572;2022-12-26T04:01:15;96451.66;;;9.04;100.00
65614;BME280;52283;49.292;10.572;2022-12-26T04:04:02;96452.41;;;9.04;100.00
65614;BME280;52283;49.292;10.572;2022-12-26T04:06:50;96440.53;;;9.09;100.00
65614;BME280;52283;49.292;10.572;2022-12-26T04:09:40;96449.13;;;9.06;100.00
65614;BME280;52283;49.292;10.572;2022-12-26T04:12:26;96449.66;;;9.10;100.00
65614;BME280;52283;49.292;10.572;2022-12-26T04:15:17;96440.53;;;9.09;100.00
65614;BME280;52283;49.292;10.572;2022-12-26T04:18:06;96440.13;;;9.16;100.00
65614;BME280;52283;49.292;10.572;2022-12-26T04:20:59;96450.19;;;9.14;100.00
65614;BME280;52283;49.292;10.572;2022-12-26T04:23:33;96452.94;;;9.08;100.00
65614;BME280;52283;49.292;10.572;2022-12-26T04:26:28;96447.66;;;9.10;100.00
65614;BME280;52283;49.292;10.572;2022-12-26T04:29:15;96459.03;;;9.07;100.00
65614;BME280;52283;49.292;10.572;2022-12-26T04:32:02;96463.84;;;9.06;100.00
65614;BME280;52283;49.292;10.572;2022-12-26T04:34:53;96459.97;;;8.98;100.00
65614;BME280;52283;49.292;10.572;2022-12-26T04:37:40;96459.97;;;8.98;100.00
65614;BME280;52283;49.292;10.572;2022-12-26T04:40:29;96455.66;;;8.97;100.00
65614;BME280;52283;49.292;10.572;2022-12-26T04:43:16;96454.81;;;8.91;100.00
65614;BME280;52283;49.292;10.572;2022-12-26T04:46:01;96471.53;;;8.91;100.00
65614;BME280;52283;49.292;10.572;2022-12-26T04:48:27;96480.94;;;8.94;100.00
65614;BME280;52283;49.292;10.572;2022-12-26T04:51:11;96473.41;;;9.00;100.00
65614;BME280;52283;49.292;10.572;2022-12-26T04:53:38;96481.28;;;9.01;100.00
65614;BME280;52283;49.292;10.572;2022-12-26T04:56:05;96483.34;;;9.06;100.00
65614;BME280;52283;49.292;10.572;2022-12-26T04:58:33;96484.09;;;9.07;100.00
65614;BME280;52283;49.292;10.572;2022-12-26T05:00:59;96488.97;;;9.12;100.00
65614;BME280;52283;49.292;10.572;2022-12-26T05:03:46;96479.84;;;9.11;100.00
65614;BME280;52283;49.292;10.572;2022-12-26T05:06:32;96474.75;;;9.10;100.00
65614;BME280;52283;49.292;10.572;2022-12-26T05:09:17;96470.44;;;9.09;100.00
65614;BME280;52283;49.292;10.572;2022-12-26T05:12:00;96479.84;;;9.11;100.00
65614;BME280;52283;49.292;10.572;2022-12-26T05:14:28;96470.44;;;9.09;100.00
65614;BME280;52283;49.292;10.572;2022-12-26T05:16:56;96480.38;;;9.15;100.00
65614;BME280;52283;49.292;10.572;2022-12-26T05:19:40;96474.75;;;9.10;100.00
65614;BME280;52283;49.292;10.572;2022-12-26T05:22:25;96471.94;;;9.04;100.00
65614;BME280;52283;49.292;10.572;2022-12-26T05:25:14;96465.31;;;9.02;100.00
65614;BME280;52283;49.292;10.572;2022-12-26T05:28:00;96460.72;;;8.99;100.00
65614;BME280;52283;49.292;10.572;2022-12-26T05:30:46;96466.34;;;9.04;100.00
65614;BME280;52283;49.292;10.572;2022-12-26T05:33:12;96476.50;;;9.07;100.00
65614;BME280;52283;49.292;10.572;2022-12-26T05:35:57;96466.09;;;9.02;100.00
65614;BME280;52283;49.292;10.572;2022-12-26T05:38:23;96484.66;;;9.11;100.00
65614;BME280;52283;49.292;10.572;2022-12-26T05:40:50;96480.81;;;9.08;100.00
65614;BME280;52283;49.292;10.572;2022-12-26T05:43:16;96474.25;;;9.11;100.00
65614;BME280;52283;49.292;10.572;2022-12-26T05:45:45;96466.88;;;9.08;100.00
65614;BME280;52283;49.292;10.572;2022-12-26T05:48:11;96456.53;;;9.14;100.00
65614;BME280;52283;49.292;10.572;2022-12-26T05:50:38;96463.59;;;9.10;100.00
65614;BME280;52283;49.292;10.572;2022-12-26T05:53:04;96469.84;;;8.99;100.00
65614;BME280;52283;49.292;10.572;2022-12-26T05:55:31;96470.13;;;9.01;100.00
65614;BME280;52283;49.292;10.572;2022-12-26T05:57:59;96472.38;;;8.97;100.00
65614;BME280;52283;49.292;10.572;2022-12-26T06:00:25;96467.56;;;8.98;100.00
65614;BME280;52283;49.292;10.572;2022-12-26T06:02:54;96468.25;;;8.93;100.00
65614;BME280;52283;49.292;10.572;2022-12-26T06:05:21;96464.44;;;8.90;100.00
65614;BME280;52283;49.292;10.572;2022-12-26T06:07:47;96454.31;;;8.93;100.00
65614;BME280;52283;49.292;10.572;2022-12-26T06:10:14;96462.94;;;8.95;100.00
65614;BME280;52283;49.292;10.572;2022-12-26T06:12:40;96462.19;;;8.94;100.00
65614;BME280;52283;49.292;10.572;2022-12-26T06:15:08;96437.09;;;8.94;100.00
65614;BME280;52283;49.292;10.572;2022-12-26T06:17:35;96433.56;;;8.94;100.00
65614;BME280;52283;49.292;10.572;2022-12-26T06:20:03;96439.31;;;8.84;100.00
65614;BME280;52283;49.292;10.572;2022-12-26T06:22:30;96431.44;;;8.83;100.00
65614;BME280;52283;49.292;10.572;2022-12-26T06:24:56;96420.25;;;8.77;100.00
65614;BME280;52283;49.292;10.572;2022-12-26T06:27:23;96440.56;;;8.83;100.00
65614;BME280;52283;49.292;10.572;2022-12-26T06:29:49;96447.44;;;8.88;100.00
65614;BME280;52283;49.292;10.572;2022-12-26T06:32:16;96446.47;;;8.91;100.00
65614;BME280;52283;49.292;10.572;2022-12-26T06:34:42;96460.88;;;8.90;100.00
65614;BME280;52283;49.292;10.572;2022-12-26T06:37:10;96454.81;;;8.91;100.00
65614;BME280;52283;49.292;10.572;2022-12-26T06:39:36;96457.59;;;8.91;100.00
65614;BME280;52283;49.292;10.572;2022-12-26T06:42:03;96449.25;;;8.91;100.00
65614;BME280;52283;49.292;10.572;2022-12-26T06:44:30;96450.56;;;8.96;100.00
65614;BME280;52283;49.292;10.572;2022-12-26T06:46:56;96448.25;;;8.94;100.00
65614;BME280;52283;49.292;10.572;2022-12-26T06:49:23;96450.28;;;8.94;100.00
65614;BME280;52283;49.292;10.572;2022-12-26T06:51:50;96451.81;;;8.95;100.00
65614;BME280;52283;49.292;10.572;2022-12-26T06:54:18;96465.28;;;8.96;100.00
65614;BME280;52283;49.292;10.572;2022-12-26T06:56:45;96461.22;;;8.97;100.00
65614;BME280;52283;49.292;10.572;2022-12-26T06:59:11;96465.31;;;9.02;100.00
65614;BME280;52283;49.292;10.572;2022-12-26T07:01:37;96468.88;;;9.02;100.00
65614;BME280;52283;49.292;10.572;2022-12-26T07:04:04;96466.09;;;9.02;100.00
65614;BME280;52283;49.292;10.572;2022-12-26T07:06:32;96473.69;;;9.02;100.00
65614;BME280;52283;49.292;10.572;2022-12-26T07:09:02;96466.13;;;9.08;100.00
65614;BME280;52283;49.292;10.572;2022-12-26T07:11:33;96477.06;;;9.11;100.00
65614;BME280;52283;49.292;10.572;2022-12-26T07:13:59;96469.22;;;9.15;100.00
65614;BME280;52283;49.292;10.572;2022-12-26T07:16:26;96484.50;;;9.20;100.00
65614;BME280;52283;49.292;10.572;2022-12-26T07:18:53;96490.06;;;9.20;100.00
65614;BME280;52283;49.292;10.572;2022-12-26T07:21:21;96479.19;;;9.22;100.00
65614;BME280;52283;49.292;10.572;2022-12-26T07:23:48;96472.09;;;9.21;100.00
65614;BME280;52283;49.292;10.572;2022-12-26T07:26:14;96469.56;;;9.23;100.00
65614;BME280;52283;49.292;10.572;2022-12-26T07:28:42;96467.50;;;9.18;100.00
65614;BME280;52283;49.292;10.572;2022-12-26T07:31:14;96457.59;;;9.17;100.00
65614;BME280;52283;49.292;10.572;2022-12-26T07:33:41;96462.41;;;9.16;100.00
65614;BME280;52283;49.292;10.572;2022-12-26T07:36:07;96468.75;;;9.17;100.00
65614;BME280;52283;49.292;10.572;2022-12-26T07:38:34;96480.94;;;9.20;100.00
65614;BME280;52283;49.292;10.572;2022-12-26T07:41:00;96493.63;;;9.21;100.00
65614;BME280;52283;49.292;10.572;2022-12-26T07:43:50;96493.84;;;9.17;100.00
65614;BME280;52283;49.292;10.572;2022-12-26T07:46:17;96499.88;;;9.15;100.00
65614;BME280;52283;49.292;10.572;2022-12-26T07:48:44;96491.25;;;9.13;100.00
65614;BME280;52283;49.292;10.572;2022-12-26T07:51:10;96495.56;;;9.14;100.00
65614;BME280;52283;49.292;10.572;2022-12-26T07:53:37;96493.28;;;9.13;100.00
65614;BME280;52283;49.292;10.572;2022-12-26T07:56:04;96499.13;;;9.15;100.00
65614;BME280;52283;49.292;10.572;2022-12-26T07:58:31;96487.72;;;9.13;100.00
65614;BME280;52283;49.292;10.572;2022-12-26T08:01:00;96483.13;;;9.10;100.00
65614;BME280;52283;49.292;10.572;2022-12-26T08:03:27;96482.75;;;8.97;100.00
65614;BME280;52283;49.292;10.572;2022-12-26T08:05:53;96494.31;;;8.90;100.00
65614;BME280;52283;49.292;10.572;2022-12-26T08:08:20;96481.34;;;8.81;100.00
65614;BME280;52283;49.292;10.572;2022-12-26T08:10:46;96485.38;;;8.80;100.00
65614;BME280;52283;49.292;10.572;2022-12-26T08:13:13;96499.63;;;8.88;100.00
65614;BME280;52283;49.292;10.572;2022-12-26T08:15:40;96508.31;;;8.95;100.00
65614;BME280;52283;49.292;10.572;2022-12-26T08:18:08;96516.22;;;8.97;100.00
65614;BME280;52283;49.292;10.572;2022-12-26T08:20:35;96517.50;;;9.01;100.00
65614;BME280;52283;49.292;10.572;2022-12-26T08:23:02;96519.47;;;8.95;100.00
65614;BME280;52283;49.292;10.572;2022-12-26T08:25:28;96516.84;;;8.86;100.00
65614;BME280;52283;49.292;10.572;2022-12-26T08:27:55;96523.63;;;8.79;100.00
65614;BME280;52283;49.292;10.572;2022-12-26T08:30:21;96528.34;;;8.73;100.00
65614;BME280;52283;49.292;10.572;2022-12-26T08:32:49;96521.69;;;8.65;100.00
65614;BME280;52283;49.292;10.572;2022-12-26T08:35:17;96524.59;;;8.76;100.00
65614;BME280;52283;49.292;10.572;2022-12-26T08:37:45;96526.47;;;8.65;100.00
65614;BME280;52283;49.292;10.572;2022-12-26T08:40:12;96530.59;;;8.69;100.00
65614;BME280;52283;49.292;10.572;2022-12-26T08:42:38;96524.03;;;8.72;100.00
65614;BME280;52283;49.292;10.572;2022-12-26T08:45:05;96523.06;;;8.75;100.00
65614;BME280;52283;49.292;10.572;2022-12-26T08:47:32;96526.69;;;8.81;100.00
65614;BME280;52283;49.292;10.572;2022-12-26T08:49:59;96532.75;;;8.80;100.00
65614;BME280;52283;49.292;10.572;2022-12-26T08:52:26;96532.31;;;8.87;100.00
65614;BME280;52283;49.292;10.572;2022-12-26T08:54:53;96524.38;;;8.80;100.00
65614;BME280;52283;49.292;10.572;2022-12-26T08:57:19;96507.00;;;8.91;100.00
65614;BME280;52283;49.292;10.572;2022-12-26T08:59:46;96496.69;;;8.97;100.00
65614;BME280;52283;49.292;10.572;2022-12-26T09:02:12;96490.34;;;8.96;100.00
65614;BME280;52283;49.292;10.572;2022-12-26T09:04:38;96501.78;;;8.98;100.00
65614;BME280;52283;49.292;10.572;2022-12-26T09:07:06;96504.22;;;8.91;100.00
65614;BME280;52283;49.292;10.572;2022-12-26T09:09:34;96505.06;;;8.97;100.00
65614;BME280;52283;49.292;10.572;2022-12-26T09:12:01;96500.56;;;8.79;100.00
65614;BME280;52283;49.292;10.572;2022-12-26T09:14:27;96511.94;;;8.75;100.00
65614;BME280;52283;49.292;10.572;2022-12-26T09:16:54;96510.31;;;8.69;100.00
65614;BME280;52283;49.292;10.572;2022-12-26T09:19:21;96515.41;;;8.70;100.00
65614;BME280;52283;49.292;10.572;2022-12-26T09:21:49;96516.88;;;8.66;100.00
65614;BME280;52283;49.292;10.572;2022-12-26T09:24:38;96515.63;;;8.67;100.00
65614;BME280;52283;49.292;10.572;2022-12-26T09:27:04;96522.22;;;8.69;100.00
65614;BME280;52283;49.292;10.572;2022-12-26T09:29:31;96524.25;;;8.69;100.00
65614;BME280;52283;49.292;10.572;2022-12-26T09:31:57;96520.28;;;8.75;100.00
65614;BME280;52283;49.292;10.572;2022-12-26T09:34:24;96540.69;;;8.67;100.00
65614;BME280;52283;49.292;10.572;2022-12-26T09:36:50;96539.16;;;8.66;100.00
65614;BME280;52283;49.292;10.572;2022-12-26T09:39:17;96552.81;;;8.64;100.00
65614;BME280;52283;49.292;10.572;2022-12-26T09:41:53;96538.59;;;8.62;100.00
65614;BME280;52283;49.292;10.572;2022-12-26T09:44:27;96530.19;;;8.56;100.00
65614;BME280;52283;49.292;10.572;2022-12-26T09:47:10;96531.91;;;8.53;100.00
65614;BME280;52283;49.292;10.572;2022-12-26T09:49:46;96538.19;;;8.48;100.00
65614;BME280;52283;49.292;10.572;2022-12-26T09:52:19;96532.34;;;8.46;100.00
65614;BME280;52283;49.292;10.572;2022-12-26T09:54:52;96547.72;;;8.42;100.00
65614;BME280;52283;49.292;10.572;2022-12-26T09:57:28;96550.25;;;8.40;100.00
65614;BME280;52283;49.292;10.572;2022-12-26T09:59:58;96552.53;;;8.41;100.00
65614;BME280;52283;49.292;10.572;2022-12-26T10:02:26;96550.94;;;8.35;100.00
65614;BME280;52283;49.292;10.572;2022-12-26T10:04:53;96554.19;;;8.33;100.00
65614;BME280;52283;49.292;10.572;2022-12-26T10:07:24;96551.84;;;8.32;100.00
65614;BME280;52283;49.292;10.572;2022-12-26T10:09:59;96552.63;;;8.32;100.00
65614;BME280;52283;49.292;10.572;2022-12-26T10:12:41;96552.84;;;8.29;100.00
65614;BME280;52283;49.292;10.572;2022-12-26T10:15:28;96569.31;;;8.32;100.00
65614;BME280;52283;49.292;10.572;2022-12-26T10:18:05;96580.66;;;8.29;100.00
65614;BME280;52283;49.292;10.572;2022-12-26T10:20:38;96590.97;;;8.22;100.00
65614;BME280;52283;49.292;10.572;2022-12-26T10:23:25;96576.00;;;8.20;100.00
65614;BME280;52283;49.292;10.572;2022-12-26T10:25:57;96566.47;;;8.26;100.00
65614;BME280;52283;49.292;10.572;2022-12-26T10:28:31;96576.56;;;8.24;100.00
65614;BME280;52283;49.292;10.572;2022-12-26T10:31:04;96565.72;;;8.26;100.00
65614;BME280;52283;49.292;10.572;2022-12-26T10:33:39;96561.19;;;8.29;100.00
65614;BME280;52283;49.292;10.572;2022-12-26T10:36:14;96571.69;;;8.34;100.00
65614;BME280;52283;49.292;10.572;2022-12-26T10:38:44;96589.91;;;8.35;100.00
65614;BME280;52283;49.292;10.572;2022-12-26T10:41:14;96598.72;;;8.33;100.00
65614;BME280;52283;49.292;10.572;2022-12-26T10:43:45;96599.19;;;8.32;100.00
65614;BME280;52283;49.292;10.572;2022-12-26T10:46:34;96592.50;;;8.23;100.00
65614;BME280;52283;49.292;10.572;2022-12-26T10:49:07;96591.81;;;8.29;100.00
65614;BME280;52283;49.292;10.572;2022-12-26T10:51:35;96597.09;;;8.26;100.00
65614;BME280;52283;49.292;10.572;2022-12-26T10:54:02;96596.63;;;8.28;100.00
65614;BME280;52283;49.292;10.572;2022-12-26T10:56:36;96600.16;;;8.29;100.00
65614;BME280;52283;49.292;10.572;2022-12-26T10:59:04;96585.00;;;8.30;100.00
65614;BME280;52283;49.292;10.572;2022-12-26T11:01:37;96582.81;;;8.34;100.00
65614;BME280;52283;49.292;10.572;2022-12-26T11:04:13;96581.06;;;8.36;100.00
65614;BME280;52283;49.292;10.572;2022-12-26T11:06:42;96582.41;;;8.41;100.00
65614;BME280;52283;49.292;10.572;2022-12-26T11:09:23;96575.28;;;8.40;100.00
65614;BME280;52283;49.292;10.572;2022-12-26T11:11:50;96573.00;;;8.38;100.00
65614;BME280;52283;49.292;10.572;2022-12-26T11:14:27;96580.38;;;8.41;100.00
65614;BME280;52283;49.292;10.572;2022-12-26T11:16:56;96580.88;;;8.40;100.00
65614;BME280;52283;49.292;10.572;2022-12-26T11:19:27;96589.22;;;8.40;100.00
65614;BME280;52283;49.292;10.572;2022-12-26T11:21:54;96588.94;;;8.38;100.00
65614;BME280;52283;49.292;10.572;2022-12-26T11:24:39;96585.28;;;8.32;100.00
65614;BME280;52283;49.292;10.572;2022-12-26T11:27:16;96592.69;;;8.35;100.00
65614;BME280;52283;49.292;10.572;2022-12-26T11:29:45;96595.75;;;8.37;100.00
65614;BME280;52283;49.292;10.572;2022-12-26T11:32:18;96590.56;;;8.30;100.00
65614;BME280;52283;49.292;10.572;2022-12-26T11:34:47;96587.59;;;8.33;100.00
65614;BME280;52283;49.292;10.572;2022-12-26T11:37:23;96582.69;;;8.28;100.00
65614;BME280;52283;49.292;10.572;2022-12-26T11:39:51;96593.75;;;8.22;100.00
65614;BME280;52283;49.292;10.572;2022-12-26T11:42:20;96592.00;;;8.25;100.00
65614;BME280;52283;49.292;10.572;2022-12-26T11:44:51;96573.28;;;8.25;100.00
65614;BME280;52283;49.292;10.572;2022-12-26T11:47:20;96591.59;;;8.32;100.00
65614;BME280;52283;49.292;10.572;2022-12-26T11:49:53;96581.84;;;8.22;100.00
65614;BME280;52283;49.292;10.572;2022-12-26T11:52:33;96585.91;;;8.21;100.00
65614;BME280;52283;49.292;10.572;2022-12-26T11:55:00;96590.13;;;8.16;100.00
65614;BME280;52283;49.292;10.572;2022-12-26T11:57:29;96588.88;;;8.17;100.00
65614;BME280;52283;49.292;10.572;2022-12-26T12:00:14;96589.84;;;8.14;100.00
65614;BME280;52283;49.292;10.572;2022-12-26T12:02:41;96582.06;;;8.18;100.00
65614;BME280;52283;49.292;10.572;2022-12-26T12:05:13;96558.47;;;8.14;100.00
65614;BME280;52283;49.292;10.572;2022-12-26T12:08:08;96546.09;;;8.15;100.00
65614;BME280;52283;49.292;10.572;2022-12-26T12:11:09;96542.72;;;8.11;100.00
65614;BME280;52283;49.292;10.572;2022-12-26T12:13:51;96540.25;;;8.13;100.00
65614;BME280;52283;49.292;10.572;2022-12-26T12:16:33;96540.69;;;8.11;100.00
65614;BME280;52283;49.292;10.572;2022-12-26T12:19:12;96566.72;;;8.08;100.00
65614;BME280;52283;49.292;10.572;2022-12-26T12:21:42;96555.38;;;8.12;100.00
65614;BME280;52283;49.292;10.572;2022-12-26T12:24:22;96559.13;;;8.09;100.00
65614;BME280;52283;49.292;10.572;2022-12-26T12:26:58;96569.00;;;8.10;100.00
65614;BME280;52283;49.292;10.572;2022-12-26T12:29:37;96566.06;;;8.13;100.00
65614;BME280;52283;49.292;10.572;2022-12-26T12:32:15;96568.53;;;8.11;100.00
65614;BME280;52283;49.292;10.572;2022-12-26T12:35:05;96564.03;;;8.14;100.00
65614;BME280;52283;49.292;10.572;2022-12-26T12:37:46;96587.84;;;8.15;100.00
65614;BME280;52283;49.292;10.572;2022-12-26T12:40:24;96571.13;;;8.15;100.00
65614;BME280;52283;49.292;10.572;2022-12-26T12:42:58;96584.28;;;8.14;100.00
65614;BME280;52283;49.292;10.572;2022-12-26T12:45:32;96577.53;;;8.21;100.00
65614;BME280;52283;49.292;10.572;2022-12-26T12:48:12;96575.81;;;8.23;100.00
65614;BME280;52283;49.292;10.572;2022-12-26T12:50:44;96567.25;;;8.27;100.00
65614;BME280;52283;49.292;10.572;2022-12-26T12:53:25;96562.72;;;8.30;100.00
65614;BME280;52283;49.292;10.572;2022-12-26T12:56:03;96565.78;;;8.32;100.00
65614;BME280;52283;49.292;10.572;2022-12-26T12:58:41;96553.88;;;8.31;100.00
65614;BME280;52283;49.292;10.572;2022-12-26T13:01:14;96547.00;;;8.26;100.00
65614;BME280;52283;49.292;10.572;2022-12-26T13:03:48;96554.63;;;8.32;100.00
65614;BME280;52283;49.292;10.572;2022-12-26T13:06:21;96532.84;;;8.30;100.00
65614;BME280;52283;49.292;10.572;2022-12-26T13:08:53;96542.75;;;8.31;100.00
65614;BME280;52283;49.292;10.572;2022-12-26T13:11:24;96530.56;;;8.29;100.00
65614;BME280;52283;49.292;10.572;2022-12-26T13:13:55;96530.78;;;8.25;100.00
65614;BME280;52283;49.292;10.572;2022-12-26T13:16:26;96546.78;;;8.30;100.00
65614;BME280;52283;49.292;10.572;2022-12-26T13:18:57;96545.25;;;8.29;100.00
65614;BME280;52283;49.292;10.572;2022-12-26T13:21:26;96557.91;;;8.30;100.00